createdAt,value
2023-04-07T09:27:58.857Z,6.38
2023-04-07T09:30:27.261Z,9.40
2023-04-07T09:32:54.554Z,8.75
2023-04-07T09:35:23.280Z,8.63
2023-04-07T09:38:06.780Z,8.52
2023-04-07T09:40:34.508Z,8.80
2023-04-07T09:43:03.297Z,8.32
2023-04-07T09:45:35.394Z,9.45
2023-04-07T09:48:22.091Z,8.50
2023-04-07T09:50:49.711Z,8.73
2023-04-07T09:53:17.342Z,9.52
2023-04-07T09:55:45.025Z,9.73
2023-04-07T09:58:16.558Z,8.75
2023-04-07T10:00:44.385Z,9.50
2023-04-07T10:03:12.253Z,9.60
2023-04-07T10:05:39.763Z,8.55
2023-04-07T10:08:06.943Z,9.00
2023-04-07T10:10:36.890Z,9.02
2023-04-07T10:13:06.060Z,10.30
2023-04-07T10:15:33.431Z,10.07
2023-04-07T10:18:01.423Z,11.70
2023-04-07T10:20:29.967Z,10.75
2023-04-07T10:23:07.093Z,10.88
2023-04-07T10:25:36.729Z,10.77
2023-04-07T10:28:09.706Z,10.35
2023-04-07T10:33:04.999Z,11.18
2023-04-07T10:36:05.120Z,13.40
2023-04-07T10:38:33.233Z,13.38
2023-04-07T10:41:00.430Z,11.98
2023-04-07T10:43:42.318Z,10.73
2023-04-07T10:46:09.252Z,10.38
2023-04-07T10:48:36.734Z,9.38
2023-04-07T10:51:08.102Z,9.05
2023-04-07T10:53:35.451Z,9.25
2023-04-07T10:56:02.835Z,9.77
2023-04-07T10:58:31.065Z,9.18
2023-04-07T11:01:01.077Z,10.40
2023-04-07T11:03:30.095Z,10.27
2023-04-07T11:06:10.618Z,9.95
2023-04-07T11:08:39.959Z,10.55
2023-04-07T11:11:11.953Z,10.85
2023-04-07T11:13:42.794Z,10.50
2023-04-07T11:16:10.774Z,10.70
2023-04-07T11:18:38.175Z,11.73
2023-04-07T11:21:07.198Z,11.52
2023-04-07T11:23:42.183Z,11.13
2023-04-07T11:26:11.809Z,12.18
2023-04-07T11:28:49.084Z,11.48
2023-04-07T11:31:31.626Z,12.25
2023-04-07T11:34:03.774Z,12.30
2023-04-07T11:36:40.971Z,13.65
2023-04-07T11:39:20.529Z,12.05
2023-04-07T11:41:49.389Z,13.77
2023-04-07T11:44:17.120Z,13.00
2023-04-07T11:46:55.532Z,14.05
2023-04-07T11:49:23.877Z,14.10
2023-04-07T11:52:18.740Z,12.52
2023-04-07T11:54:53.361Z,12.55
2023-04-07T11:57:28.142Z,12.65
2023-04-07T12:00:12.939Z,13.25
2023-04-07T12:02:40.187Z,13.98
2023-04-07T12:05:07.968Z,13.35
2023-04-07T12:07:36.209Z,17.48
2023-04-07T12:10:20.397Z,18.15
2023-04-07T12:12:48.393Z,18.83
2023-04-07T12:15:15.794Z,21.08
2023-04-07T12:17:49.319Z,20.00
2023-04-07T12:20:16.784Z,19.92
2023-04-07T12:22:43.596Z,18.73
2023-04-07T12:25:10.570Z,19.15
2023-04-07T12:27:43.217Z,16.88
2023-04-07T12:32:38.668Z,15.95
2023-04-07T12:35:06.439Z,18.45
2023-04-07T12:37:33.350Z,18.02
2023-04-07T12:40:00.603Z,18.45
2023-04-07T12:42:28.086Z,18.48
2023-04-07T12:44:55.368Z,18.55
2023-04-07T12:47:22.968Z,16.95
2023-04-07T12:49:50.283Z,18.77
2023-04-07T12:52:17.484Z,17.30
2023-04-07T12:54:45.417Z,18.13
2023-04-07T12:57:13.096Z,17.15
2023-04-07T12:59:40.288Z,15.90
2023-04-07T13:02:10.765Z,16.27
2023-04-07T13:04:40.858Z,17.17
2023-04-07T13:07:08.417Z,16.92
2023-04-07T13:09:35.795Z,15.52
2023-04-07T13:12:03.027Z,16.02
2023-04-07T13:14:29.816Z,15.15
2023-04-07T13:16:56.629Z,15.25
2023-04-07T13:19:23.572Z,15.00
2023-04-07T13:21:53.442Z,16.40
2023-04-07T13:24:21.828Z,15.68
2023-04-07T13:26:49.040Z,14.88
2023-04-07T13:29:17.278Z,15.38
2023-04-07T13:31:46.571Z,14.52
2023-04-07T13:34:13.953Z,16.58
2023-04-07T13:36:41.860Z,16.23
2023-04-07T13:39:09.325Z,16.27
2023-04-07T13:41:36.121Z,16.80
2023-04-07T13:44:02.911Z,16.23
2023-04-07T13:46:32.547Z,16.67
2023-04-07T13:48:59.712Z,16.33
2023-04-07T13:51:28.051Z,16.40
2023-04-07T13:53:55.012Z,16.45
2023-04-07T13:56:22.571Z,17.67
2023-04-07T13:58:49.667Z,16.27
2023-04-07T14:01:16.930Z,16.05
2023-04-07T14:03:43.872Z,15.82
2023-04-07T14:06:10.871Z,17.30
2023-04-07T14:08:37.950Z,17.35
2023-04-07T14:11:05.117Z,16.20
2023-04-07T14:13:31.929Z,16.67
2023-04-07T14:15:58.772Z,15.82
2023-04-07T14:18:28.417Z,16.40
2023-04-07T14:20:55.568Z,16.38
2023-04-07T14:23:33.802Z,16.35
2023-04-07T14:26:01.357Z,17.23
2023-04-07T14:28:28.935Z,17.17
2023-04-07T14:30:56.304Z,17.92
2023-04-07T14:33:23.496Z,18.75
2023-04-07T14:35:50.729Z,16.50
2023-04-07T14:38:18.032Z,17.35
2023-04-07T14:40:45.659Z,16.08
2023-04-07T14:43:14.184Z,16.25
2023-04-07T14:45:40.962Z,16.73
2023-04-07T14:48:07.890Z,16.90
2023-04-07T14:50:34.910Z,16.40
2023-04-07T14:53:02.413Z,16.85
2023-04-07T14:55:30.942Z,17.38
2023-04-07T14:57:57.933Z,15.77
2023-04-07T15:00:26.202Z,13.35
2023-04-07T15:02:56.139Z,14.00
2023-04-07T15:05:23.248Z,14.02
2023-04-07T15:07:51.269Z,14.00
2023-04-07T15:10:18.667Z,15.07
2023-04-07T15:12:51.958Z,14.90
2023-04-07T15:15:18.821Z,15.60
2023-04-07T15:17:45.849Z,15.55
2023-04-07T15:20:13.627Z,16.13
2023-04-07T15:22:40.716Z,17.85
2023-04-07T15:25:08.009Z,16.55
2023-04-07T15:27:35.032Z,16.60
2023-04-07T15:30:01.937Z,16.70
2023-04-07T15:32:31.096Z,16.63
2023-04-07T15:34:57.982Z,15.27
2023-04-07T15:37:25.613Z,13.88
2023-04-07T15:39:52.736Z,14.13
2023-04-07T15:42:19.630Z,14.98
2023-04-07T15:44:46.432Z,13.68
2023-04-07T15:47:13.286Z,15.30
2023-04-07T15:49:41.433Z,14.35
2023-04-07T15:52:09.114Z,15.00
2023-04-07T15:54:35.878Z,15.52
2023-04-07T15:57:02.792Z,15.52
2023-04-07T15:59:31.726Z,15.73
2023-04-07T16:01:59.252Z,13.73
2023-04-07T16:04:27.285Z,15.07
2023-04-07T16:06:54.454Z,15.15
2023-04-07T16:09:21.901Z,14.05
2023-04-07T16:11:48.837Z,14.15
2023-04-07T16:14:15.715Z,14.52
2023-04-07T16:16:44.505Z,15.45
2023-04-07T16:19:11.603Z,14.23
2023-04-07T16:21:40.085Z,14.60
2023-04-07T16:24:06.884Z,15.20
2023-04-07T16:26:33.862Z,15.45
2023-04-07T16:29:00.904Z,14.57
2023-04-07T16:31:28.110Z,14.85
2023-04-07T16:33:54.929Z,15.02
2023-04-07T16:36:21.862Z,14.95
2023-04-07T16:38:49.794Z,15.15
2023-04-07T16:41:16.816Z,15.77
2023-04-07T16:43:44.042Z,16.27
2023-04-07T16:46:11.248Z,16.48
2023-04-07T16:48:37.992Z,16.65
2023-04-07T16:51:04.931Z,14.65
2023-04-07T16:53:31.747Z,15.77
2023-04-07T16:55:58.502Z,14.52
2023-04-07T16:58:26.012Z,13.85
2023-04-07T17:00:52.778Z,14.05
2023-04-07T17:03:19.635Z,15.05
2023-04-07T17:05:47.478Z,13.88
2023-04-07T17:08:14.321Z,15.00
2023-04-07T17:10:41.141Z,14.70
2023-04-07T17:13:07.919Z,14.13
2023-04-07T17:15:38.446Z,13.80
2023-04-07T17:18:06.484Z,14.70
2023-04-07T17:20:33.740Z,14.55
2023-04-07T17:23:00.886Z,15.18
2023-04-07T17:25:27.832Z,15.25
2023-04-07T17:27:55.304Z,15.02
2023-04-07T17:30:22.538Z,15.10
2023-04-07T17:32:53.555Z,14.68
2023-04-07T17:35:22.736Z,14.90
2023-04-07T17:37:51.176Z,15.57
2023-04-07T17:40:18.355Z,15.30
2023-04-07T17:42:45.999Z,13.23
2023-04-07T17:45:12.966Z,13.48
2023-04-07T17:47:40.401Z,15.30
2023-04-07T17:50:07.745Z,12.65
2023-04-07T17:52:34.576Z,13.93
2023-04-07T17:55:01.696Z,12.38
2023-04-07T17:57:28.616Z,12.73
2023-04-07T17:59:55.506Z,13.40
2023-04-07T18:02:22.988Z,12.43
2023-04-07T18:04:51.030Z,11.75
2023-04-07T18:07:18.361Z,11.60
2023-04-07T18:09:45.311Z,11.95
2023-04-07T18:12:12.410Z,12.13
2023-04-07T18:14:39.290Z,13.55
2023-04-07T18:17:06.146Z,13.68
2023-04-07T18:19:34.021Z,14.15
2023-04-07T18:22:01.092Z,13.82
2023-04-07T18:24:29.826Z,14.38
2023-04-07T18:26:57.251Z,13.40
2023-04-07T18:29:24.207Z,13.20
2023-04-07T18:31:51.660Z,14.32
2023-04-07T18:34:18.579Z,12.98
2023-04-07T18:36:47.674Z,13.90
2023-04-07T18:39:14.639Z,12.48
2023-04-07T18:41:44.905Z,13.90
2023-04-07T18:44:12.300Z,14.27
2023-04-07T18:46:39.434Z,14.55
2023-04-07T18:49:06.616Z,13.35
2023-04-07T18:51:33.960Z,13.50
2023-04-07T18:54:01.123Z,13.43
2023-04-07T18:56:28.722Z,13.75
2023-04-07T18:58:55.820Z,12.98
2023-04-07T19:01:23.077Z,13.60
2023-04-07T19:03:50.642Z,11.80
2023-04-07T19:06:17.955Z,12.40
2023-04-07T19:08:45.424Z,13.48
2023-04-07T19:11:12.253Z,12.88
2023-04-07T19:13:39.347Z,12.07
2023-04-07T19:16:07.668Z,12.13
2023-04-07T19:18:34.645Z,12.93
2023-04-07T19:21:01.602Z,13.82
2023-04-07T19:23:28.761Z,14.05
2023-04-07T19:25:55.628Z,14.30
2023-04-07T19:28:22.526Z,14.27
2023-04-07T19:30:49.515Z,14.05
2023-04-07T19:33:16.383Z,14.40
2023-04-07T19:35:43.505Z,14.32
2023-04-07T19:38:10.693Z,14.10
2023-04-07T19:40:37.646Z,16.48
2023-04-07T19:43:04.803Z,15.75
2023-04-07T19:45:31.756Z,17.30
2023-04-07T19:47:59.258Z,17.40
2023-04-07T19:50:26.972Z,16.13
2023-04-07T19:52:54.102Z,17.25
2023-04-07T19:55:25.495Z,15.68
2023-04-07T19:57:53.812Z,15.52
2023-04-07T20:00:24.090Z,16.35
2023-04-07T20:02:51.051Z,15.32
2023-04-07T20:05:19.082Z,15.93
2023-04-07T20:07:46.760Z,16.10
2023-04-07T20:10:13.900Z,16.63
2023-04-07T20:12:41.021Z,16.65
2023-04-07T20:15:08.733Z,16.58
2023-04-07T20:17:37.371Z,17.70
2023-04-07T20:20:06.183Z,17.75
2023-04-07T20:22:36.582Z,18.50
2023-04-07T20:25:05.719Z,18.20
2023-04-07T20:27:33.225Z,17.25
2023-04-07T20:30:02.924Z,17.67
2023-04-07T20:32:31.403Z,17.75
2023-04-07T20:34:58.510Z,16.33
2023-04-07T20:37:26.449Z,16.42
2023-04-07T20:39:55.873Z,16.35
2023-04-07T20:42:22.997Z,16.65
2023-04-07T20:44:49.894Z,16.42
2023-04-07T20:47:16.709Z,16.27
2023-04-07T20:49:43.886Z,18.55
2023-04-07T20:52:10.805Z,16.05
2023-04-07T20:54:39.344Z,16.15
2023-04-07T20:57:06.509Z,15.63
2023-04-07T20:59:33.750Z,16.38
2023-04-07T21:02:01.092Z,15.52
2023-04-07T21:04:28.627Z,17.23
2023-04-07T21:06:55.790Z,16.60
2023-04-07T21:09:22.630Z,16.55
2023-04-07T21:11:49.759Z,15.73
2023-04-07T21:14:16.888Z,17.15
2023-04-07T21:16:43.951Z,16.83
2023-04-07T21:19:11.271Z,16.58
2023-04-07T21:21:38.416Z,17.08
2023-04-07T21:24:05.605Z,17.27
2023-04-07T21:26:32.715Z,17.10
2023-04-07T21:28:59.825Z,17.95
2023-04-07T21:31:26.752Z,17.42
2023-04-07T21:33:54.039Z,16.67
2023-04-07T21:36:21.722Z,17.33
2023-04-07T21:38:49.891Z,17.10
2023-04-07T21:41:17.274Z,16.75
2023-04-07T21:43:44.193Z,16.70
2023-04-07T21:46:11.052Z,16.17
2023-04-07T21:48:37.850Z,16.90
2023-04-07T21:51:05.006Z,16.77
2023-04-07T21:53:32.391Z,16.98
2023-04-07T21:55:59.558Z,16.05
2023-04-07T21:58:26.452Z,16.70
2023-04-07T22:00:54.227Z,16.75
2023-04-07T22:03:22.408Z,17.83
2023-04-07T22:05:49.339Z,16.70
2023-04-07T22:08:16.976Z,17.27
2023-04-07T22:10:43.970Z,17.00
2023-04-07T22:13:11.167Z,17.25
2023-04-07T22:15:37.991Z,18.02
2023-04-07T22:18:05.094Z,17.92
2023-04-07T22:20:32.171Z,17.40
2023-04-07T22:22:59.384Z,16.02
2023-04-07T22:25:26.549Z,16.48
2023-04-07T22:27:53.728Z,17.45
2023-04-07T22:30:21.026Z,17.08
2023-04-07T22:32:48.319Z,17.05
2023-04-07T22:35:15.710Z,16.73
2023-04-07T22:37:42.931Z,16.23
2023-04-07T22:40:10.805Z,16.42
2023-04-07T22:42:37.886Z,15.77
2023-04-07T22:45:05.534Z,15.55
2023-04-07T22:47:32.417Z,14.15
2023-04-07T22:49:59.600Z,15.50
2023-04-07T22:52:26.352Z,16.20
2023-04-07T22:54:53.288Z,15.38
2023-04-07T22:57:21.203Z,15.32
2023-04-07T22:59:47.970Z,15.30
2023-04-07T23:02:15.065Z,16.38
2023-04-07T23:04:42.238Z,15.77
2023-04-07T23:07:09.016Z,16.05
2023-04-07T23:09:36.299Z,15.95
2023-04-07T23:12:03.454Z,16.17
2023-04-07T23:14:30.603Z,16.20
2023-04-07T23:16:57.906Z,15.65
2023-04-07T23:19:25.226Z,16.35
2023-04-07T23:21:52.630Z,16.65
2023-04-07T23:24:19.697Z,16.42
2023-04-07T23:26:46.523Z,16.63
2023-04-07T23:29:13.380Z,17.13
2023-04-07T23:31:40.510Z,18.45
2023-04-07T23:34:07.342Z,16.85
2023-04-07T23:36:34.199Z,17.58
2023-04-07T23:39:02.169Z,19.02
2023-04-07T23:41:29.116Z,17.95
2023-04-07T23:43:56.285Z,17.30
2023-04-07T23:46:24.017Z,17.50
2023-04-07T23:48:51.307Z,18.13
2023-04-07T23:51:18.622Z,17.85
2023-04-07T23:53:46.195Z,18.38
2023-04-07T23:56:13.034Z,18.75
2023-04-07T23:58:39.856Z,18.77
